sensor_id;sensor_type;location;lat;lon;timestamp;P1;durP1;ratioP1;P2;durP2;ratioP2
22072;SDS011;11202;50.916;4.698;2022-09-23T00:01:00;12.25;;;5.88;;
22072;SDS011;11202;50.916;4.698;2022-09-23T00:03:31;10.30;;;6.15;;
22072;SDS011;11202;50.916;4.698;2022-09-23T00:06:02;11.07;;;6.00;;
22072;SDS011;11202;50.916;4.698;2022-09-23T00:08:32;10.68;;;7.07;;
22072;SDS011;11202;50.916;4.698;2022-09-23T00:11:31;8.15;;;6.35;;
22072;SDS011;11202;50.916;4.698;2022-09-23T00:13:52;12.27;;;6.68;;
22072;SDS011;11202;50.916;4.698;2022-09-23T00:16:21;11.80;;;6.80;;
22072;SDS011;11202;50.916;4.698;2022-09-23T00:18:49;9.00;;;5.88;;
22072;SDS011;11202;50.916;4.698;2022-09-23T00:21:14;12.65;;;7.28;;
22072;SDS011;11202;50.916;4.698;2022-09-23T00:23:41;12.20;;;6.55;;
22072;SDS011;11202;50.916;4.698;2022-09-23T00:26:08;11.75;;;7.13;;
22072;SDS011;11202;50.916;4.698;2022-09-23T00:28:40;10.52;;;6.60;;
22072;SDS011;11202;50.916;4.698;2022-09-23T00:31:08;10.25;;;6.57;;
22072;SDS011;11202;50.916;4.698;2022-09-23T00:33:38;10.70;;;7.20;;
22072;SDS011;11202;50.916;4.698;2022-09-23T00:36:05;15.55;;;7.40;;
22072;SDS011;11202;50.916;4.698;2022-09-23T00:38:35;11.82;;;6.68;;
22072;SDS011;11202;50.916;4.698;2022-09-23T00:41:04;11.57;;;7.50;;
22072;SDS011;11202;50.916;4.698;2022-09-23T00:43:50;15.88;;;9.27;;
22072;SDS011;11202;50.916;4.698;2022-09-23T00:46:37;10.30;;;6.82;;
22072;SDS011;11202;50.916;4.698;2022-09-23T00:49:23;12.27;;;6.80;;
22072;SDS011;11202;50.916;4.698;2022-09-23T00:52:01;11.30;;;7.03;;
22072;SDS011;11202;50.916;4.698;2022-09-23T00:54:42;12.82;;;7.05;;
22072;SDS011;11202;50.916;4.698;2022-09-23T00:57:10;10.77;;;6.93;;
22072;SDS011;11202;50.916;4.698;2022-09-23T00:59:41;12.20;;;7.40;;
22072;SDS011;11202;50.916;4.698;2022-09-23T01:02:10;10.73;;;7.45;;
22072;SDS011;11202;50.916;4.698;2022-09-23T01:04:38;12.73;;;6.82;;
22072;SDS011;11202;50.916;4.698;2022-09-23T01:07:03;12.57;;;7.40;;
22072;SDS011;11202;50.916;4.698;2022-09-23T01:09:31;10.27;;;7.15;;
22072;SDS011;11202;50.916;4.698;2022-09-23T01:31:35;11.88;;;7.93;;
22072;SDS011;11202;50.916;4.698;2022-09-23T01:34:10;12.85;;;7.85;;
22072;SDS011;11202;50.916;4.698;2022-09-23T01:36:48;13.52;;;8.13;;
22072;SDS011;11202;50.916;4.698;2022-09-23T01:39:29;14.90;;;8.63;;
22072;SDS011;11202;50.916;4.698;2022-09-23T01:44:55;12.32;;;8.48;;
22072;SDS011;11202;50.916;4.698;2022-09-23T01:47:53;23.60;;;8.95;;
22072;SDS011;11202;50.916;4.698;2022-09-23T01:50:33;14.80;;;8.63;;
22072;SDS011;11202;50.916;4.698;2022-09-23T01:53:23;13.43;;;9.13;;
22072;SDS011;11202;50.916;4.698;2022-09-23T01:59:09;13.48;;;9.00;;
22072;SDS011;11202;50.916;4.698;2022-09-23T02:01:59;14.90;;;8.88;;
22072;SDS011;11202;50.916;4.698;2022-09-23T02:04:29;16.85;;;9.60;;
22072;SDS011;11202;50.916;4.698;2022-09-23T02:09:45;15.10;;;9.07;;
22072;SDS011;11202;50.916;4.698;2022-09-23T02:12:26;13.00;;;9.45;;
22072;SDS011;11202;50.916;4.698;2022-09-23T02:14:58;15.05;;;9.13;;
22072;SDS011;11202;50.916;4.698;2022-09-23T02:17:33;18.35;;;9.80;;
22072;SDS011;11202;50.916;4.698;2022-09-23T02:20:09;13.55;;;9.45;;
22072;SDS011;11202;50.916;4.698;2022-09-23T02:25:18;15.60;;;9.88;;
22072;SDS011;11202;50.916;4.698;2022-09-23T02:27:58;14.25;;;10.05;;
22072;SDS011;11202;50.916;4.698;2022-09-23T02:30:39;14.27;;;9.80;;
22072;SDS011;11202;50.916;4.698;2022-09-23T02:33:15;16.05;;;9.40;;
22072;SDS011;11202;50.916;4.698;2022-09-23T02:35:53;19.85;;;9.77;;
22072;SDS011;11202;50.916;4.698;2022-09-23T02:38:42;15.13;;;9.93;;
22072;SDS011;11202;50.916;4.698;2022-09-23T02:41:20;16.23;;;8.73;;
22072;SDS011;11202;50.916;4.698;2022-09-23T02:43:54;16.17;;;9.02;;
22072;SDS011;11202;50.916;4.698;2022-09-23T02:46:26;18.15;;;9.50;;
22072;SDS011;11202;50.916;4.698;2022-09-23T02:49:36;12.90;;;9.48;;
22072;SDS011;11202;50.916;4.698;2022-09-23T02:51:47;15.23;;;9.38;;
22072;SDS011;11202;50.916;4.698;2022-09-23T02:54:32;13.60;;;8.98;;
22072;SDS011;11202;50.916;4.698;2022-09-23T02:57:00;13.23;;;8.68;;
22072;SDS011;11202;50.916;4.698;2022-09-23T02:59:28;16.25;;;8.90;;
22072;SDS011;11202;50.916;4.698;2022-09-23T03:10:18;10.55;;;7.93;;
22072;SDS011;11202;50.916;4.698;2022-09-23T03:13:02;12.18;;;8.35;;
22072;SDS011;11202;50.916;4.698;2022-09-23T03:20:44;13.43;;;8.90;;
22072;SDS011;11202;50.916;4.698;2022-09-23T03:23:19;13.90;;;7.68;;
22072;SDS011;11202;50.916;4.698;2022-09-23T03:25:50;12.45;;;8.65;;
22072;SDS011;11202;50.916;4.698;2022-09-23T03:28:18;12.40;;;7.65;;
22072;SDS011;11202;50.916;4.698;2022-09-23T03:30:49;12.63;;;7.93;;
22072;SDS011;11202;50.916;4.698;2022-09-23T03:33:19;12.43;;;7.80;;
22072;SDS011;11202;50.916;4.698;2022-09-23T03:35:50;14.40;;;8.38;;
22072;SDS011;11202;50.916;4.698;2022-09-23T03:41:08;11.95;;;7.65;;
22072;SDS011;11202;50.916;4.698;2022-09-23T03:43:39;13.85;;;8.48;;
22072;SDS011;11202;50.916;4.698;2022-09-23T03:46:07;14.88;;;8.40;;
22072;SDS011;11202;50.916;4.698;2022-09-23T03:48:33;13.90;;;8.20;;
22072;SDS011;11202;50.916;4.698;2022-09-23T03:51:04;13.38;;;8.32;;
22072;SDS011;11202;50.916;4.698;2022-09-23T03:53:46;14.45;;;8.60;;
22072;SDS011;11202;50.916;4.698;2022-09-23T03:56:12;13.27;;;8.85;;
22072;SDS011;11202;50.916;4.698;2022-09-23T03:58:38;13.65;;;8.95;;
22072;SDS011;11202;50.916;4.698;2022-09-23T04:01:04;11.38;;;8.07;;
22072;SDS011;11202;50.916;4.698;2022-09-23T04:03:30;16.20;;;8.70;;
22072;SDS011;11202;50.916;4.698;2022-09-23T04:05:55;17.85;;;9.45;;
22072;SDS011;11202;50.916;4.698;2022-09-23T04:08:21;15.18;;;9.02;;
22072;SDS011;11202;50.916;4.698;2022-09-23T04:10:46;15.48;;;8.77;;
22072;SDS011;11202;50.916;4.698;2022-09-23T04:13:13;16.00;;;9.15;;
22072;SDS011;11202;50.916;4.698;2022-09-23T04:15:41;17.33;;;9.88;;
22072;SDS011;11202;50.916;4.698;2022-09-23T04:18:06;18.90;;;9.30;;
22072;SDS011;11202;50.916;4.698;2022-09-23T04:20:34;18.08;;;9.20;;
22072;SDS011;11202;50.916;4.698;2022-09-23T04:23:02;15.27;;;9.20;;
22072;SDS011;11202;50.916;4.698;2022-09-23T04:25:30;25.80;;;9.18;;
22072;SDS011;11202;50.916;4.698;2022-09-23T04:27:59;14.88;;;9.00;;
22072;SDS011;11202;50.916;4.698;2022-09-23T04:30:24;20.45;;;9.55;;
22072;SDS011;11202;50.916;4.698;2022-09-23T04:32:53;13.93;;;9.50;;
22072;SDS011;11202;50.916;4.698;2022-09-23T04:35:18;17.27;;;8.98;;
22072;SDS011;11202;50.916;4.698;2022-09-23T04:37:46;12.05;;;8.57;;
22072;SDS011;11202;50.916;4.698;2022-09-23T04:40:14;14.52;;;8.45;;
22072;SDS011;11202;50.916;4.698;2022-09-23T04:42:45;15.93;;;9.77;;
22072;SDS011;11202;50.916;4.698;2022-09-23T04:45:11;19.48;;;9.05;;
22072;SDS011;11202;50.916;4.698;2022-09-23T04:47:37;13.85;;;9.07;;
22072;SDS011;11202;50.916;4.698;2022-09-23T04:50:02;22.15;;;9.35;;
22072;SDS011;11202;50.916;4.698;2022-09-23T04:52:31;16.05;;;9.10;;
22072;SDS011;11202;50.916;4.698;2022-09-23T04:54:59;20.30;;;9.57;;
22072;SDS011;11202;50.916;4.698;2022-09-23T04:57:28;13.32;;;9.18;;
22072;SDS011;11202;50.916;4.698;2022-09-23T04:59:53;14.52;;;8.90;;
22072;SDS011;11202;50.916;4.698;2022-09-23T05:02:21;15.90;;;8.50;;
22072;SDS011;11202;50.916;4.698;2022-09-23T05:04:47;13.88;;;8.90;;
22072;SDS011;11202;50.916;4.698;2022-09-23T05:07:13;15.65;;;8.77;;
22072;SDS011;11202;50.916;4.698;2022-09-23T05:09:41;13.98;;;8.63;;
22072;SDS011;11202;50.916;4.698;2022-09-23T05:12:07;12.65;;;8.73;;
22072;SDS011;11202;50.916;4.698;2022-09-23T05:14:32;16.67;;;8.00;;
22072;SDS011;11202;50.916;4.698;2022-09-23T05:16:58;16.88;;;8.52;;
22072;SDS011;11202;50.916;4.698;2022-09-23T05:19:23;15.73;;;7.75;;
22072;SDS011;11202;50.916;4.698;2022-09-23T05:21:49;17.70;;;8.27;;
22072;SDS011;11202;50.916;4.698;2022-09-23T05:24:17;12.90;;;7.93;;
22072;SDS011;11202;50.916;4.698;2022-09-23T05:26:45;14.95;;;8.23;;
22072;SDS011;11202;50.916;4.698;2022-09-23T05:29:14;13.65;;;7.80;;
22072;SDS011;11202;50.916;4.698;2022-09-23T05:31:40;17.67;;;7.90;;
22072;SDS011;11202;50.916;4.698;2022-09-23T05:34:05;13.77;;;7.53;;
22072;SDS011;11202;50.916;4.698;2022-09-23T05:36:32;11.60;;;7.85;;
22072;SDS011;11202;50.916;4.698;2022-09-23T05:39:03;15.65;;;8.18;;
22072;SDS011;11202;50.916;4.698;2022-09-23T05:41:28;16.67;;;8.20;;
22072;SDS011;11202;50.916;4.698;2022-09-23T05:43:54;15.02;;;7.80;;
22072;SDS011;11202;50.916;4.698;2022-09-23T05:46:21;13.30;;;7.95;;
22072;SDS011;11202;50.916;4.698;2022-09-23T05:48:49;15.15;;;7.72;;
22072;SDS011;11202;50.916;4.698;2022-09-23T05:51:18;12.90;;;7.32;;
22072;SDS011;11202;50.916;4.698;2022-09-23T05:53:46;10.63;;;7.03;;
22072;SDS011;11202;50.916;4.698;2022-09-23T05:56:16;16.38;;;8.07;;
22072;SDS011;11202;50.916;4.698;2022-09-23T05:58:43;13.15;;;6.97;;
22072;SDS011;11202;50.916;4.698;2022-09-23T06:01:14;10.60;;;6.75;;
22072;SDS011;11202;50.916;4.698;2022-09-23T06:04:02;12.90;;;7.78;;
22072;SDS011;11202;50.916;4.698;2022-09-23T06:06:30;12.05;;;6.88;;
22072;SDS011;11202;50.916;4.698;2022-09-23T06:09:06;14.32;;;7.25;;
22072;SDS011;11202;50.916;4.698;2022-09-23T06:11:35;11.98;;;7.50;;
22072;SDS011;11202;50.916;4.698;2022-09-23T06:14:01;12.00;;;7.05;;
22072;SDS011;11202;50.916;4.698;2022-09-23T06:16:31;16.13;;;7.40;;
22072;SDS011;11202;50.916;4.698;2022-09-23T06:18:58;13.52;;;7.30;;
22072;SDS011;11202;50.916;4.698;2022-09-23T06:21:29;16.50;;;7.93;;
22072;SDS011;11202;50.916;4.698;2022-09-23T06:23:56;12.25;;;6.97;;
22072;SDS011;11202;50.916;4.698;2022-09-23T06:26:25;17.65;;;6.97;;
22072;SDS011;11202;50.916;4.698;2022-09-23T06:28:52;16.20;;;6.93;;
22072;SDS011;11202;50.916;4.698;2022-09-23T06:31:17;12.23;;;7.18;;
22072;SDS011;11202;50.916;4.698;2022-09-23T06:33:44;14.80;;;7.03;;
22072;SDS011;11202;50.916;4.698;2022-09-23T06:36:12;11.75;;;6.93;;
22072;SDS011;11202;50.916;4.698;2022-09-23T06:38:39;15.90;;;6.95;;
22072;SDS011;11202;50.916;4.698;2022-09-23T06:41:08;15.05;;;6.25;;
22072;SDS011;11202;50.916;4.698;2022-09-23T06:43:34;12.82;;;6.30;;
22072;SDS011;11202;50.916;4.698;2022-09-23T06:46:00;13.38;;;6.47;;
22072;SDS011;11202;50.916;4.698;2022-09-23T06:48:27;11.70;;;6.05;;
22072;SDS011;11202;50.916;4.698;2022-09-23T06:50:57;12.88;;;6.05;;
22072;SDS011;11202;50.916;4.698;2022-09-23T06:53:25;10.80;;;6.07;;
22072;SDS011;11202;50.916;4.698;2022-09-23T06:55:58;10.48;;;6.13;;
22072;SDS011;11202;50.916;4.698;2022-09-23T06:58:24;10.85;;;6.22;;
22072;SDS011;11202;50.916;4.698;2022-09-23T07:00:50;10.75;;;5.78;;
22072;SDS011;11202;50.916;4.698;2022-09-23T07:03:19;10.57;;;5.53;;
22072;SDS011;11202;50.916;4.698;2022-09-23T07:05:46;12.82;;;5.78;;
22072;SDS011;11202;50.916;4.698;2022-09-23T07:08:11;11.75;;;5.85;;
22072;SDS011;11202;50.916;4.698;2022-09-23T07:10:42;12.75;;;5.55;;
22072;SDS011;11202;50.916;4.698;2022-09-23T07:13:15;11.95;;;5.80;;
22072;SDS011;11202;50.916;4.698;2022-09-23T07:15:47;11.35;;;5.43;;
22072;SDS011;11202;50.916;4.698;2022-09-23T07:18:17;14.07;;;5.68;;
22072;SDS011;11202;50.916;4.698;2022-09-23T07:20:43;10.93;;;5.72;;
22072;SDS011;11202;50.916;4.698;2022-09-23T07:23:10;14.77;;;6.57;;
22072;SDS011;11202;50.916;4.698;2022-09-23T07:25:42;11.63;;;6.03;;
22072;SDS011;11202;50.916;4.698;2022-09-23T07:28:09;14.65;;;6.80;;
22072;SDS011;11202;50.916;4.698;2022-09-23T07:30:39;13.93;;;7.13;;
22072;SDS011;11202;50.916;4.698;2022-09-23T07:33:05;15.02;;;6.53;;
22072;SDS011;11202;50.916;4.698;2022-09-23T07:35:31;16.85;;;7.10;;
22072;SDS011;11202;50.916;4.698;2022-09-23T07:37:57;17.70;;;7.32;;
22072;SDS011;11202;50.916;4.698;2022-09-23T07:40:23;14.57;;;7.85;;
22072;SDS011;11202;50.916;4.698;2022-09-23T07:42:49;24.58;;;7.03;;
22072;SDS011;11202;50.916;4.698;2022-09-23T07:45:14;20.55;;;7.13;;
22072;SDS011;11202;50.916;4.698;2022-09-23T07:47:43;22.52;;;7.40;;
22072;SDS011;11202;50.916;4.698;2022-09-23T07:50:09;15.70;;;7.00;;
22072;SDS011;11202;50.916;4.698;2022-09-23T07:52:35;18.73;;;7.03;;
22072;SDS011;11202;50.916;4.698;2022-09-23T07:55:02;18.73;;;7.50;;
22072;SDS011;11202;50.916;4.698;2022-09-23T07:57:29;15.68;;;7.03;;
22072;SDS011;11202;50.916;4.698;2022-09-23T07:59:54;16.15;;;6.97;;
22072;SDS011;11202;50.916;4.698;2022-09-23T08:02:21;14.20;;;6.28;;
22072;SDS011;11202;50.916;4.698;2022-09-23T08:04:48;11.23;;;5.90;;
22072;SDS011;11202;50.916;4.698;2022-09-23T08:07:14;12.63;;;6.15;;
22072;SDS011;11202;50.916;4.698;2022-09-23T08:09:41;15.57;;;6.15;;
22072;SDS011;11202;50.916;4.698;2022-09-23T08:12:08;15.45;;;6.03;;
22072;SDS011;11202;50.916;4.698;2022-09-23T08:14:35;13.25;;;6.47;;
22072;SDS011;11202;50.916;4.698;2022-09-23T08:17:03;13.07;;;5.43;;
22072;SDS011;11202;50.916;4.698;2022-09-23T08:19:29;16.10;;;6.07;;
22072;SDS011;11202;50.916;4.698;2022-09-23T08:21:55;9.93;;;6.05;;
22072;SDS011;11202;50.916;4.698;2022-09-23T08:24:25;14.38;;;6.00;;
22072;SDS011;11202;50.916;4.698;2022-09-23T08:26:51;12.25;;;5.63;;
22072;SDS011;11202;50.916;4.698;2022-09-23T08:29:20;12.68;;;5.47;;
22072;SDS011;11202;50.916;4.698;2022-09-23T08:31:51;15.07;;;6.10;;
22072;SDS011;11202;50.916;4.698;2022-09-23T08:34:18;16.60;;;5.70;;
22072;SDS011;11202;50.916;4.698;2022-09-23T08:36:45;12.80;;;5.70;;
22072;SDS011;11202;50.916;4.698;2022-09-23T08:39:15;15.38;;;6.00;;
22072;SDS011;11202;50.916;4.698;2022-09-23T08:41:45;13.88;;;5.80;;
22072;SDS011;11202;50.916;4.698;2022-09-23T08:49:52;13.90;;;5.80;;
22072;SDS011;11202;50.916;4.698;2022-09-23T08:55:37;12.27;;;5.65;;
22072;SDS011;11202;50.916;4.698;2022-09-23T09:01:33;13.88;;;6.00;;
22072;SDS011;11202;50.916;4.698;2022-09-23T09:06:50;18.27;;;5.45;;
22072;SDS011;11202;50.916;4.698;2022-09-23T09:09:45;10.68;;;5.53;;
22072;SDS011;11202;50.916;4.698;2022-09-23T09:14:49;13.75;;;5.93;;
22072;SDS011;11202;50.916;4.698;2022-09-23T09:17:36;13.18;;;6.07;;
22072;SDS011;11202;50.916;4.698;2022-09-23T09:28:14;14.63;;;6.75;;
22072;SDS011;11202;50.916;4.698;2022-09-23T09:30:53;14.17;;;6.33;;
22072;SDS011;11202;50.916;4.698;2022-09-23T09:33:30;12.90;;;6.20;;
22072;SDS011;11202;50.916;4.698;2022-09-23T09:39:02;14.35;;;5.65;;
22072;SDS011;11202;50.916;4.698;2022-09-23T09:41:28;16.17;;;6.18;;
22072;SDS011;11202;50.916;4.698;2022-09-23T09:43:59;11.73;;;5.50;;
22072;SDS011;11202;50.916;4.698;2022-09-23T09:46:35;11.02;;;6.00;;
22072;SDS011;11202;50.916;4.698;2022-09-23T09:49:13;12.80;;;6.25;;
22072;SDS011;11202;50.916;4.698;2022-09-23T09:52:01;15.35;;;5.80;;
22072;SDS011;11202;50.916;4.698;2022-09-23T09:54:37;13.77;;;5.57;;
22072;SDS011;11202;50.916;4.698;2022-09-23T09:57:10;13.82;;;5.55;;
22072;SDS011;11202;50.916;4.698;2022-09-23T09:59:52;19.35;;;6.30;;
22072;SDS011;11202;50.916;4.698;2022-09-23T10:02:21;15.10;;;5.97;;
22072;SDS011;11202;50.916;4.698;2022-09-23T10:04:56;16.58;;;6.60;;
22072;SDS011;11202;50.916;4.698;2022-09-23T10:07:29;14.85;;;6.20;;
22072;SDS011;11202;50.916;4.698;2022-09-23T10:09:56;16.03;;;6.30;;
22072;SDS011;11202;50.916;4.698;2022-09-23T10:12:25;14.70;;;6.75;;
22072;SDS011;11202;50.916;4.698;2022-09-23T10:14:56;19.30;;;7.00;;
22072;SDS011;11202;50.916;4.698;2022-09-23T10:19:56;14.50;;;6.13;;
22072;SDS011;11202;50.916;4.698;2022-09-23T10:22:25;17.13;;;6.00;;
22072;SDS011;11202;50.916;4.698;2022-09-23T10:25:07;14.87;;;6.53;;
22072;SDS011;11202;50.916;4.698;2022-09-23T10:27:39;23.13;;;6.40;;
22072;SDS011;11202;50.916;4.698;2022-09-23T10:30:26;17.85;;;5.72;;
22072;SDS011;11202;50.916;4.698;2022-09-23T10:32:55;13.93;;;5.95;;
22072;SDS011;11202;50.916;4.698;2022-09-23T10:35:22;14.50;;;5.75;;
22072;SDS011;11202;50.916;4.698;2022-09-23T10:40:28;14.45;;;5.40;;
22072;SDS011;11202;50.916;4.698;2022-09-23T10:46:35;11.93;;;5.15;;
22072;SDS011;11202;50.916;4.698;2022-09-23T10:58:19;13.45;;;4.80;;
22072;SDS011;11202;50.916;4.698;2022-09-23T11:28:15;8.68;;;3.53;;
22072;SDS011;11202;50.916;4.698;2022-09-23T11:37:02;6.40;;;3.60;;
22072;SDS011;11202;50.916;4.698;2022-09-23T11:39:45;6.55;;;3.60;;
22072;SDS011;11202;50.916;4.698;2022-09-23T11:42:35;12.02;;;3.70;;
22072;SDS011;11202;50.916;4.698;2022-09-23T11:45:22;10.07;;;3.95;;
22072;SDS011;11202;50.916;4.698;2022-09-23T11:47:53;9.05;;;3.83;;
22072;SDS011;11202;50.916;4.698;2022-09-23T11:50:27;8.90;;;3.92;;
22072;SDS011;11202;50.916;4.698;2022-09-23T11:55:51;10.10;;;3.83;;
22072;SDS011;11202;50.916;4.698;2022-09-23T11:58:34;8.25;;;3.63;;
22072;SDS011;11202;50.916;4.698;2022-09-23T12:01:08;6.45;;;3.28;;
22072;SDS011;11202;50.916;4.698;2022-09-23T12:03:55;9.68;;;4.45;;
22072;SDS011;11202;50.916;4.698;2022-09-23T12:06:37;11.43;;;4.05;;
22072;SDS011;11202;50.916;4.698;2022-09-23T12:09:18;10.30;;;3.83;;
22072;SDS011;11202;50.916;4.698;2022-09-23T12:11:59;10.82;;;4.50;;
22072;SDS011;11202;50.916;4.698;2022-09-23T12:15:01;10.98;;;4.75;;
22072;SDS011;11202;50.916;4.698;2022-09-23T12:25:57;8.10;;;4.68;;
22072;SDS011;11202;50.916;4.698;2022-09-23T12:28:28;12.48;;;5.00;;
22072;SDS011;11202;50.916;4.698;2022-09-23T12:31:01;10.13;;;4.38;;
22072;SDS011;11202;50.916;4.698;2022-09-23T12:33:31;9.23;;;4.65;;
22072;SDS011;11202;50.916;4.698;2022-09-23T12:41:00;11.70;;;4.95;;
22072;SDS011;11202;50.916;4.698;2022-09-23T12:43:48;11.23;;;4.38;;
22072;SDS011;11202;50.916;4.698;2022-09-23T12:46:23;9.52;;;4.70;;
22072;SDS011;11202;50.916;4.698;2022-09-23T12:51:32;9.63;;;4.50;;
22072;SDS011;11202;50.916;4.698;2022-09-23T12:56:56;9.15;;;4.63;;
22072;SDS011;11202;50.916;4.698;2022-09-23T12:59:22;10.27;;;4.65;;
22072;SDS011;11202;50.916;4.698;2022-09-23T13:01:49;13.10;;;4.90;;
22072;SDS011;11202;50.916;4.698;2022-09-23T13:04:28;10.23;;;4.70;;
22072;SDS011;11202;50.916;4.698;2022-09-23T13:07:31;10.40;;;5.07;;
22072;SDS011;11202;50.916;4.698;2022-09-23T13:10:16;11.05;;;4.90;;
22072;SDS011;11202;50.916;4.698;2022-09-23T13:12:43;13.70;;;4.55;;
22072;SDS011;11202;50.916;4.698;2022-09-23T13:15:31;12.40;;;5.07;;
22072;SDS011;11202;50.916;4.698;2022-09-23T13:21:17;10.82;;;5.20;;
22072;SDS011;11202;50.916;4.698;2022-09-23T13:26:53;12.40;;;7.15;;
22072;SDS011;11202;50.916;4.698;2022-09-23T13:32:11;10.65;;;4.80;;
22072;SDS011;11202;50.916;4.698;2022-09-23T13:34:46;10.32;;;5.13;;
22072;SDS011;11202;50.916;4.698;2022-09-23T13:37:20;16.55;;;6.18;;
22072;SDS011;11202;50.916;4.698;2022-09-23T13:39:49;15.60;;;6.43;;
22072;SDS011;11202;50.916;4.698;2022-09-23T13:42:27;12.15;;;5.45;;
22072;SDS011;11202;50.916;4.698;2022-09-23T13:44:55;17.55;;;5.68;;
22072;SDS011;11202;50.916;4.698;2022-09-23T13:47:29;14.55;;;5.30;;
22072;SDS011;11202;50.916;4.698;2022-09-23T13:50:00;9.88;;;5.28;;
22072;SDS011;11202;50.916;4.698;2022-09-23T13:52:27;9.80;;;5.18;;
22072;SDS011;11202;50.916;4.698;2022-09-23T13:54:56;13.63;;;5.70;;
22072;SDS011;11202;50.916;4.698;2022-09-23T14:00:14;12.95;;;5.25;;
22072;SDS011;11202;50.916;4.698;2022-09-23T14:02:43;15.25;;;5.57;;
22072;SDS011;11202;50.916;4.698;2022-09-23T14:07:53;11.75;;;5.20;;
22072;SDS011;11202;50.916;4.698;2022-09-23T14:10:23;14.73;;;5.72;;
22072;SDS011;11202;50.916;4.698;2022-09-23T14:12:51;15.93;;;5.28;;
22072;SDS011;11202;50.916;4.698;2022-09-23T14:15:18;12.02;;;5.18;;
22072;SDS011;11202;50.916;4.698;2022-09-23T14:17:45;14.00;;;5.60;;
22072;SDS011;11202;50.916;4.698;2022-09-23T14:20:14;10.10;;;5.30;;
22072;SDS011;11202;50.916;4.698;2022-09-23T14:22:41;13.35;;;5.55;;
22072;SDS011;11202;50.916;4.698;2022-09-23T14:25:11;15.90;;;5.72;;
22072;SDS011;11202;50.916;4.698;2022-09-23T14:27:39;12.50;;;5.05;;
22072;SDS011;11202;50.916;4.698;2022-09-23T14:30:12;12.60;;;5.00;;
22072;SDS011;11202;50.916;4.698;2022-09-23T14:32:40;14.10;;;5.32;;
22072;SDS011;11202;50.916;4.698;2022-09-23T14:35:37;11.82;;;5.38;;
22072;SDS011;11202;50.916;4.698;2022-09-23T14:38:03;15.50;;;6.50;;
22072;SDS011;11202;50.916;4.698;2022-09-23T14:40:49;13.48;;;5.47;;
22072;SDS011;11202;50.916;4.698;2022-09-23T14:45:49;10.80;;;5.05;;
22072;SDS011;11202;50.916;4.698;2022-09-23T14:48:22;14.05;;;5.35;;
22072;SDS011;11202;50.916;4.698;2022-09-23T14:50:57;11.25;;;5.30;;
22072;SDS011;11202;50.916;4.698;2022-09-23T14:56:10;14.68;;;5.38;;
22072;SDS011;11202;50.916;4.698;2022-09-23T14:58:42;8.88;;;4.93;;
22072;SDS011;11202;50.916;4.698;2022-09-23T15:01:22;13.65;;;4.65;;
22072;SDS011;11202;50.916;4.698;2022-09-23T15:04:15;12.85;;;5.13;;
22072;SDS011;11202;50.916;4.698;2022-09-23T15:06:53;12.40;;;4.88;;
22072;SDS011;11202;50.916;4.698;2022-09-23T15:09:35;10.30;;;4.75;;
22072;SDS011;11202;50.916;4.698;2022-09-23T15:12:06;10.73;;;4.85;;
22072;SDS011;11202;50.916;4.698;2022-09-23T15:14:39;14.60;;;4.40;;
22072;SDS011;11202;50.916;4.698;2022-09-23T15:19:56;12.27;;;4.50;;
22072;SDS011;11202;50.916;4.698;2022-09-23T15:22:49;14.27;;;5.43;;
22072;SDS011;11202;50.916;4.698;2022-09-23T15:28:18;19.73;;;4.85;;
22072;SDS011;11202;50.916;4.698;2022-09-23T15:30:47;14.57;;;5.70;;
22072;SDS011;11202;50.916;4.698;2022-09-23T15:33:17;11.07;;;5.10;;
22072;SDS011;11202;50.916;4.698;2022-09-23T15:35:44;12.63;;;5.80;;
22072;SDS011;11202;50.916;4.698;2022-09-23T15:38:13;10.52;;;4.85;;
22072;SDS011;11202;50.916;4.698;2022-09-23T15:40:41;12.93;;;5.68;;
22072;SDS011;11202;50.916;4.698;2022-09-23T15:43:17;11.18;;;5.25;;
22072;SDS011;11202;50.916;4.698;2022-09-23T15:45:49;12.18;;;5.53;;
22072;SDS011;11202;50.916;4.698;2022-09-23T15:48:24;11.13;;;5.75;;
22072;SDS011;11202;50.916;4.698;2022-09-23T15:50:53;10.73;;;5.50;;
22072;SDS011;11202;50.916;4.698;2022-09-23T15:53:21;10.80;;;5.53;;
22072;SDS011;11202;50.916;4.698;2022-09-23T15:55:51;18.42;;;5.82;;
22072;SDS011;11202;50.916;4.698;2022-09-23T15:58:18;10.98;;;5.25;;
22072;SDS011;11202;50.916;4.698;2022-09-23T16:00:48;11.13;;;5.78;;
22072;SDS011;11202;50.916;4.698;2022-09-23T16:03:18;12.73;;;5.88;;
22072;SDS011;11202;50.916;4.698;2022-09-23T16:05:47;13.90;;;5.82;;
22072;SDS011;11202;50.916;4.698;2022-09-23T16:08:14;10.15;;;6.10;;
22072;SDS011;11202;50.916;4.698;2022-09-23T16:10:40;10.95;;;5.32;;
22072;SDS011;11202;50.916;4.698;2022-09-23T16:13:09;12.50;;;5.38;;
22072;SDS011;11202;50.916;4.698;2022-09-23T16:15:39;9.82;;;5.50;;
22072;SDS011;11202;50.916;4.698;2022-09-23T16:18:05;10.52;;;5.40;;
22072;SDS011;11202;50.916;4.698;2022-09-23T16:20:33;11.95;;;5.30;;
22072;SDS011;11202;50.916;4.698;2022-09-23T16:23:02;13.35;;;5.20;;
22072;SDS011;11202;50.916;4.698;2022-09-23T16:25:32;13.10;;;5.82;;
22072;SDS011;11202;50.916;4.698;2022-09-23T16:28:00;9.30;;;5.10;;
22072;SDS011;11202;50.916;4.698;2022-09-23T16:30:29;10.20;;;6.10;;
22072;SDS011;11202;50.916;4.698;2022-09-23T16:32:59;11.55;;;5.72;;
22072;SDS011;11202;50.916;4.698;2022-09-23T16:35:26;9.87;;;5.43;;
22072;SDS011;11202;50.916;4.698;2022-09-23T16:37:55;11.90;;;5.45;;
22072;SDS011;11202;50.916;4.698;2022-09-23T16:40:23;11.73;;;5.45;;
22072;SDS011;11202;50.916;4.698;2022-09-23T16:42:50;10.07;;;5.00;;
22072;SDS011;11202;50.916;4.698;2022-09-23T16:45:19;12.63;;;5.57;;
22072;SDS011;11202;50.916;4.698;2022-09-23T16:47:47;9.35;;;4.95;;
22072;SDS011;11202;50.916;4.698;2022-09-23T16:50:16;18.67;;;5.05;;
22072;SDS011;11202;50.916;4.698;2022-09-23T16:52:43;10.77;;;5.07;;
22072;SDS011;11202;50.916;4.698;2022-09-23T16:55:13;11.25;;;5.22;;
22072;SDS011;11202;50.916;4.698;2022-09-23T16:57:41;11.88;;;5.72;;
22072;SDS011;11202;50.916;4.698;2022-09-23T17:00:15;10.77;;;5.10;;
22072;SDS011;11202;50.916;4.698;2022-09-23T17:02:59;9.60;;;5.05;;
22072;SDS011;11202;50.916;4.698;2022-09-23T17:05:47;10.68;;;5.75;;
22072;SDS011;11202;50.916;4.698;2022-09-23T17:08:14;12.85;;;6.43;;
22072;SDS011;11202;50.916;4.698;2022-09-23T17:10:42;15.07;;;7.10;;
22072;SDS011;11202;50.916;4.698;2022-09-23T17:13:09;14.45;;;6.70;;
22072;SDS011;11202;50.916;4.698;2022-09-23T17:15:39;14.07;;;6.03;;
22072;SDS011;11202;50.916;4.698;2022-09-23T17:18:08;9.27;;;5.70;;
22072;SDS011;11202;50.916;4.698;2022-09-23T17:20:36;11.75;;;5.68;;
22072;SDS011;11202;50.916;4.698;2022-09-23T17:23:03;13.75;;;5.60;;
22072;SDS011;11202;50.916;4.698;2022-09-23T17:25:31;9.13;;;5.97;;
22072;SDS011;11202;50.916;4.698;2022-09-23T17:28:00;9.88;;;6.20;;
22072;SDS011;11202;50.916;4.698;2022-09-23T17:30:28;12.05;;;7.07;;
22072;SDS011;11202;50.916;4.698;2022-09-23T17:32:54;13.18;;;6.50;;
22072;SDS011;11202;50.916;4.698;2022-09-23T17:35:19;9.45;;;6.72;;
22072;SDS011;11202;50.916;4.698;2022-09-23T17:37:50;10.57;;;7.00;;
22072;SDS011;11202;50.916;4.698;2022-09-23T17:40:18;12.43;;;7.47;;
22072;SDS011;11202;50.916;4.698;2022-09-23T17:42:50;15.63;;;7.80;;
22072;SDS011;11202;50.916;4.698;2022-09-23T17:45:17;12.50;;;7.65;;
22072;SDS011;11202;50.916;4.698;2022-09-23T17:47:43;11.10;;;7.53;;
22072;SDS011;11202;50.916;4.698;2022-09-23T17:50:21;12.07;;;7.60;;
22072;SDS011;11202;50.916;4.698;2022-09-23T17:52:47;10.52;;;7.78;;
22072;SDS011;11202;50.916;4.698;2022-09-23T17:55:13;9.85;;;7.22;;